Time;durP1;ratioP1;P1;durP2;ratioP2;P2;SDS_P1;SDS_P2;PMS_P1;PMS_P2;Temp;Humidity;BMP_temperature;BMP_pressure;BME280_temperature;BME280_humidity;BME280_pressure;Samples;Min_cycle;Max_cycle;Signal;HPM_P1;HPM_P2
2023/06/20 14:14:28;;;;;;;6.53;3.05;;;33.90;32.10;;;;;;5149140;27;20277;-78
2023/06/20 14:16:56;;;;;;;5.85;2.78;;;33.30;32.50;;;;;;5130002;27;20197;-78
2023/06/20 14:19:24;;;;;;;6.55;3.10;;;33.10;33.30;;;;;;5129991;28;20650;-77
2023/06/20 14:21:52;;;;;;;6.63;3.13;;;33.20;33.20;;;;;;5134110;27;20226;-76
2023/06/20 14:24:20;;;;;;;3.97;3.10;;;33.20;32.00;;;;;;5150695;27;20197;-76
2023/06/20 14:26:49;;;;;;;6.85;3.22;;;33.40;33.50;;;;;;5150957;27;20200;-77
2023/06/20 14:29:17;;;;;;;13.18;2.85;;;33.50;32.50;;;;;;5146183;27;20206;-76
2023/06/20 14:31:46;;;;;;;5.35;3.20;;;33.20;32.20;;;;;;5147605;27;20201;-77
2023/06/20 14:34:14;;;;;;;7.47;2.90;;;33.40;32.80;;;;;;5150705;27;20231;-75
2023/06/20 14:36:42;;;;;;;6.53;3.35;;;33.30;32.20;;;;;;5150941;27;20209;-76
2023/06/20 14:39:11;;;;;;;7.20;3.22;;;33.10;32.10;;;;;;5134974;27;20227;-76
2023/06/20 14:41:39;;;;;;;4.68;2.97;;;33.10;33.00;;;;;;5136304;27;20300;-76
2023/06/20 14:44:07;;;;;;;7.25;3.10;;;33.10;32.70;;;;;;5149241;27;20217;-77
2023/06/20 14:46:36;;;;;;;5.30;3.38;;;32.80;34.00;;;;;;5129810;27;20647;-79
2023/06/20 14:49:05;;;;;;;6.22;3.20;;;33.00;33.80;;;;;;5133679;27;20663;-75
2023/06/20 14:51:33;;;;;;;5.32;3.40;;;32.70;33.60;;;;;;5150216;27;20197;-77
2023/06/20 14:54:02;;;;;;;7.05;3.08;;;32.40;33.60;;;;;;5130690;28;20226;-77
2023/06/20 14:56:30;;;;;;;6.47;3.30;;;32.20;34.20;;;;;;5138831;27;20714;-76
2023/06/20 14:58:58;;;;;;;5.57;3.47;;;32.20;35.70;;;;;;5150378;27;20316;-76
2023/06/20 15:01:26;;;;;;;4.80;3.37;;;32.30;35.80;;;;;;5150758;27;20248;-76
2023/06/20 15:03:54;;;;;;;4.95;3.15;;;32.40;36.20;;;;;;5149681;27;20197;-75
2023/06/20 15:06:24;;;;;;;6.20;3.40;;;32.40;34.50;;;;;;5142242;27;20673;-75
2023/06/20 15:08:52;;;;;;;4.10;3.00;;;32.40;34.40;;;;;;5124184;27;20267;-75
2023/06/20 15:11:21;;;;;;;7.63;3.25;;;32.40;35.10;;;;;;5128877;28;20639;-77
2023/06/20 15:13:49;;;;;;;5.10;3.38;;;32.50;35.50;;;;;;5128219;28;20229;-78
2023/06/20 15:16:17;;;;;;;6.55;3.30;;;32.50;34.60;;;;;;5126241;28;20205;-76
2023/06/20 15:18:46;;;;;;;7.38;3.58;;;32.50;36.60;;;;;;5117569;28;20631;-76
2023/06/20 15:21:14;;;;;;;7.93;3.42;;;32.40;35.00;;;;;;5108596;28;20241;-75
2023/06/20 15:23:43;;;;;;;8.35;3.40;;;32.10;35.00;;;;;;5105881;28;20541;-77
2023/06/20 15:26:12;;;;;;;7.05;3.30;;;32.10;35.40;;;;;;5095071;28;20245;-76
2023/06/20 15:28:42;;;;;;;6.05;3.20;;;32.10;35.30;;;;;;5094537;28;20575;-76
2023/06/20 15:31:11;;;;;;;4.97;3.13;;;32.20;35.40;;;;;;5093100;28;20238;-80
2023/06/20 15:33:39;;;;;;;9.23;3.70;;;32.10;35.50;;;;;;5092388;28;20634;-80
2023/06/20 15:36:08;;;;;;;7.28;3.33;;;32.20;35.20;;;;;;5095029;28;20668;-78
2023/06/20 15:38:36;;;;;;;7.03;3.30;;;32.00;34.30;;;;;;5094717;28;20272;-76
2023/06/20 15:41:05;;;;;;;8.10;3.45;;;32.00;35.80;;;;;;5094136;28;20206;-75
2023/06/20 15:43:36;;;;;;;9.30;3.60;;;32.00;34.70;;;;;;5094393;28;20273;-75
2023/06/20 15:46:07;;;;;;;7.53;3.53;;;31.90;34.70;;;;;;5107815;28;20624;-74
2023/06/20 15:48:54;;;;;;;6.47;3.50;;;31.90;34.50;;;;;;5112507;28;20226;-79
2023/06/20 15:51:22;;;;;;;5.57;3.10;;;32.00;36.20;;;;;;5111934;28;20239;-75
2023/06/20 15:53:50;;;;;;;7.33;3.50;;;32.00;35.60;;;;;;5094052;28;20227;-74
2023/06/20 15:56:20;;;;;;;6.43;3.30;;;31.90;34.50;;;;;;5092368;28;20223;-77
2023/06/20 15:58:48;;;;;;;7.35;3.30;;;31.90;36.40;;;;;;5104893;28;20645;-77
2023/06/20 16:01:16;;;;;;;6.10;3.45;;;31.80;35.10;;;;;;5109087;28;20255;-77
2023/06/20 16:03:44;;;;;;;4.97;3.30;;;31.80;36.80;;;;;;5112070;28;20202;-75
2023/06/20 16:06:13;;;;;;;6.93;3.40;;;31.70;35.80;;;;;;5113108;28;20234;-77
2023/06/20 16:08:41;;;;;;;7.50;3.50;;;31.60;36.20;;;;;;5107204;28;20242;-77
2023/06/20 16:11:09;;;;;;;9.90;3.50;;;31.50;36.10;;;;;;5103783;28;20692;-78
2023/06/20 16:13:40;;;;;;;5.53;3.13;;;31.30;35.00;;;;;;5133814;27;20270;-77
2023/06/20 16:16:08;;;;;;;6.70;3.47;;;31.10;34.70;;;;;;5135402;27;20581;-76
2023/06/20 16:18:38;;;;;;;7.70;3.60;;;31.20;36.10;;;;;;5094063;28;20236;-75
2023/06/20 16:21:07;;;;;;;8.13;3.50;;;31.20;35.50;;;;;;5093852;28;20207;-77
2023/06/20 16:23:37;;;;;;;5.33;3.30;;;31.10;35.10;;;;;;5093544;28;20697;-77
2023/06/20 16:26:06;;;;;;;9.37;3.50;;;31.10;35.80;;;;;;5093588;28;20221;-76
2023/06/20 16:28:36;;;;;;;5.83;3.50;;;31.10;35.50;;;;;;5093587;28;20203;-74
2023/06/20 16:31:06;;;;;;;10.53;3.40;;;31.10;36.90;;;;;;5093622;28;20210;-75
2023/06/20 16:33:34;;;;;;;6.57;3.73;;;31.10;35.90;;;;;;5106182;28;20226;-77
2023/06/20 16:36:16;;;;;;;7.70;3.50;;;31.10;35.60;;;;;;5124054;27;20197;-75
2023/06/20 16:38:45;;;;;;;5.73;3.57;;;31.00;38.30;;;;;;5104861;28;20263;-75
2023/06/20 16:41:13;;;;;;;9.50;3.50;;;30.80;34.60;;;;;;5114027;28;20258;-75
2023/06/20 16:43:45;;;;;;;5.87;3.57;;;30.70;35.00;;;;;;5121402;28;20230;-75
2023/06/20 16:46:15;;;;;;;10.57;3.77;;;30.60;36.10;;;;;;5104028;28;20207;-75
2023/06/20 16:48:43;;;;;;;8.10;3.57;;;30.50;37.00;;;;;;5113111;28;20262;-76
2023/06/20 16:51:11;;;;;;;8.27;3.40;;;30.40;35.20;;;;;;5113724;28;20403;-75
2023/06/20 16:53:40;;;;;;;7.93;3.07;;;30.30;35.30;;;;;;5099175;28;20330;-75
2023/06/20 16:56:08;;;;;;;8.87;3.63;;;30.20;35.50;;;;;;5102250;28;20214;-77
2023/06/20 16:58:37;;;;;;;7.43;3.43;;;30.00;36.20;;;;;;5112902;28;20298;-77
2023/06/20 17:01:05;;;;;;;11.23;3.57;;;30.00;36.10;;;;;;5105189;28;20613;-78
2023/06/20 17:03:34;;;;;;;9.27;3.90;;;30.00;36.10;;;;;;5100782;28;20560;-76
2023/06/20 17:06:03;;;;;;;8.33;3.80;;;29.90;35.70;;;;;;5093867;28;20203;-75
2023/06/20 17:08:31;;;;;;;6.67;3.30;;;29.90;36.60;;;;;;5094047;28;20245;-77
2023/06/20 17:11:00;;;;;;;10.43;3.67;;;29.90;37.30;;;;;;5092596;28;20599;-76
2023/06/20 17:13:28;;;;;;;7.40;3.70;;;29.90;38.00;;;;;;5092413;28;20218;-76
2023/06/20 17:15:56;;;;;;;9.10;4.17;;;30.00;37.90;;;;;;5093073;28;20206;-77
2023/06/20 17:18:24;;;;;;;6.30;3.70;;;30.00;38.80;;;;;;5094676;28;20263;-75
2023/06/20 17:20:53;;;;;;;6.70;4.13;;;30.10;40.90;;;;;;5100562;28;20285;-76
2023/06/20 17:23:22;;;;;;;8.30;4.10;;;30.20;41.50;;;;;;5113566;27;20671;-77
2023/06/20 17:25:50;;;;;;;7.80;3.77;;;30.20;41.20;;;;;;5099533;28;20737;-78
2023/06/20 17:28:19;;;;;;;6.67;3.87;;;30.20;42.10;;;;;;5103229;28;20249;-76
2023/06/20 17:30:47;;;;;;;10.03;4.17;;;30.20;43.30;;;;;;5118356;27;20204;-76
2023/06/20 17:33:15;;;;;;;7.30;3.80;;;30.10;40.60;;;;;;5133363;27;20205;-75
2023/06/20 17:35:43;;;;;;;6.93;3.57;;;30.10;41.60;;;;;;5115570;27;20231;-76
2023/06/20 17:38:13;;;;;;;7.57;3.70;;;30.00;41.00;;;;;;5092827;28;20256;-76
2023/06/20 17:40:41;;;;;;;5.87;3.50;;;30.00;41.70;;;;;;5092634;28;20260;-74
2023/06/20 17:43:10;;;;;;;8.03;3.87;;;29.90;41.80;;;;;;5092087;28;20262;-74
2023/06/20 17:45:38;;;;;;;7.47;3.80;;;29.80;42.40;;;;;;5103350;28;20240;-75
2023/06/20 17:48:07;;;;;;;10.23;3.90;;;29.70;42.40;;;;;;5112403;28;20230;-78
2023/06/20 17:50:35;;;;;;;8.67;4.10;;;29.60;42.70;;;;;;5108237;28;20209;-77
2023/06/20 17:53:05;;;;;;;4.97;3.30;;;29.60;43.50;;;;;;5104919;27;20284;-76
2023/06/20 17:55:34;;;;;;;7.87;3.63;;;29.50;42.60;;;;;;5101441;28;20214;-75
2023/06/20 17:58:02;;;;;;;6.87;3.90;;;29.40;42.20;;;;;;5092453;28;20239;-75
2023/06/20 18:00:30;;;;;;;9.93;3.73;;;29.30;42.60;;;;;;5102751;28;20210;-77
2023/06/20 18:02:58;;;;;;;7.87;4.03;;;29.20;43.20;;;;;;5111226;28;20565;-76
2023/06/20 18:05:28;;;;;;;6.00;3.87;;;29.20;44.30;;;;;;5103920;28;20551;-75
2023/06/20 18:07:57;;;;;;;10.80;4.03;;;29.10;44.60;;;;;;5107528;28;20211;-77
2023/06/20 18:10:26;;;;;;;7.33;3.83;;;28.90;45.30;;;;;;5102445;28;20660;-77
2023/06/20 18:12:59;;;;;;;6.40;3.93;;;28.80;46.50;;;;;;5098227;28;20207;-74
2023/06/20 18:15:27;;;;;;;9.30;4.20;;;28.70;44.80;;;;;;5111970;28;20230;-75
2023/06/20 18:17:55;;;;;;;7.27;3.70;;;28.70;45.20;;;;;;5109281;28;20213;-75
2023/06/20 18:20:23;;;;;;;7.43;4.13;;;28.60;45.50;;;;;;5112126;28;20210;-75
2023/06/20 18:22:52;;;;;;;6.50;3.80;;;28.50;45.80;;;;;;5112256;28;20206;-75
2023/06/20 18:25:20;;;;;;;9.13;4.57;;;28.40;46.90;;;;;;5109125;28;20225;-75
2023/06/20 18:27:50;;;;;;;7.47;4.17;;;28.20;46.60;;;;;;5111513;28;20210;-74
2023/06/20 18:30:20;;;;;;;7.33;4.40;;;28.10;46.80;;;;;;5116174;28;20221;-76
2023/06/20 18:32:48;;;;;;;8.43;3.80;;;28.10;47.50;;;;;;5109994;28;20271;-76
2023/06/20 18:35:17;;;;;;;9.83;3.80;;;28.00;48.10;;;;;;5111771;28;20218;-76
2023/06/20 18:37:45;;;;;;;7.57;3.93;;;27.80;48.50;;;;;;5104902;28;20203;-74
2023/06/20 18:40:13;;;;;;;9.87;4.10;;;27.70;49.10;;;;;;5106189;28;20238;-76
2023/06/20 18:42:41;;;;;;;8.13;4.27;;;27.60;49.20;;;;;;5101437;28;20267;-75
2023/06/20 18:45:10;;;;;;;6.57;3.90;;;27.50;49.70;;;;;;5111910;28;20206;-75
2023/06/20 18:47:40;;;;;;;6.27;3.87;;;27.40;50.40;;;;;;5111703;28;20222;-75
2023/06/20 18:50:09;;;;;;;9.40;4.40;;;27.30;50.90;;;;;;5111904;28;20209;-76
2023/06/20 18:52:39;;;;;;;8.23;4.00;;;27.20;50.90;;;;;;5108880;28;20251;-78
2023/06/20 18:55:07;;;;;;;8.50;4.10;;;27.10;51.00;;;;;;5118450;28;20630;-79
2023/06/20 18:57:36;;;;;;;9.67;4.13;;;27.00;51.60;;;;;;5112117;28;20271;-76
2023/06/20 19:00:05;;;;;;;7.73;3.80;;;26.90;52.00;;;;;;5107378;28;20304;-74
2023/06/20 19:02:34;;;;;;;7.40;4.00;;;26.80;52.80;;;;;;5113343;28;20209;-74
2023/06/20 19:05:04;;;;;;;8.47;4.20;;;26.70;53.10;;;;;;5115832;28;20213;-75
2023/06/20 19:07:32;;;;;;;8.70;4.27;;;26.60;53.30;;;;;;5115527;28;20544;-75
2023/06/20 19:10:00;;;;;;;6.53;4.10;;;26.50;54.50;;;;;;5106451;28;20206;-75
2023/06/20 19:12:28;;;;;;;6.27;3.87;;;26.30;55.10;;;;;;5114139;28;20242;-74
2023/06/20 19:14:56;;;;;;;9.80;4.40;;;26.20;56.10;;;;;;5106032;28;20254;-75
2023/06/20 19:17:26;;;;;;;8.00;4.20;;;26.10;57.50;;;;;;5114848;28;20206;-76
2023/06/20 19:19:55;;;;;;;7.27;4.00;;;26.00;58.00;;;;;;5115419;28;20207;-76
2023/06/20 19:22:24;;;;;;;5.33;3.90;;;25.90;58.70;;;;;;5114927;28;20214;-75
2023/06/20 19:24:52;;;;;;;6.07;3.70;;;25.80;59.50;;;;;;5101830;28;20207;-76
2023/06/20 19:27:20;;;;;;;7.23;3.97;;;25.70;60.70;;;;;;5114745;28;20210;-75
2023/06/20 19:29:48;;;;;;;5.93;4.20;;;25.70;61.40;;;;;;5114915;28;20228;-74
2023/06/20 19:32:17;;;;;;;6.70;4.00;;;25.60;62.30;;;;;;5113434;28;20624;-75
2023/06/20 19:34:45;;;;;;;4.73;4.10;;;25.50;63.60;;;;;;5109150;28;20206;-75
2023/06/20 19:37:16;;;;;;;8.37;4.00;;;25.40;65.00;;;;;;5115259;28;20529;-74
2023/06/20 19:39:46;;;;;;;7.00;3.87;;;25.40;66.30;;;;;;5115070;28;20244;-75
2023/06/20 19:42:15;;;;;;;7.03;4.00;;;25.30;67.10;;;;;;5109354;28;20214;-75
2023/06/20 19:44:44;;;;;;;4.93;3.90;;;25.20;68.10;;;;;;5114610;28;20211;-75
2023/06/20 19:47:12;;;;;;;6.90;3.90;;;25.20;69.50;;;;;;5114795;28;20210;-75
2023/06/20 19:49:41;;;;;;;8.17;4.63;;;25.10;70.70;;;;;;5112268;28;20270;-74
2023/06/20 19:52:09;;;;;;;8.07;4.40;;;25.10;71.80;;;;;;5105079;28;20206;-74
2023/06/20 19:54:37;;;;;;;8.07;4.20;;;25.00;73.00;;;;;;5114405;28;20662;-75
2023/06/20 19:57:06;;;;;;;9.07;4.40;;;24.90;75.50;;;;;;5112484;28;20313;-75
2023/06/20 19:59:34;;;;;;;9.47;4.83;;;24.90;77.40;;;;;;5105880;28;20206;-76
2023/06/20 20:02:03;;;;;;;5.17;4.30;;;24.80;79.30;;;;;;5114372;28;20230;-75
2023/06/20 20:10:00;;;;;;;8.40;4.67;;;24.70;86.90;;;;;;5372603;22;20233;-75
2023/06/20 20:12:29;;;;;;;6.93;4.57;;;24.70;87.00;;;;;;5034400;28;20213;-75
2023/06/20 20:15:00;;;;;;;12.07;4.93;;;24.60;88.20;;;;;;5034255;28;20300;-74
2023/06/20 20:17:29;;;;;;;8.80;4.83;;;24.70;90.00;;;;;;5016831;28;20307;-77
2023/06/20 20:19:57;;;;;;;11.07;4.73;;;24.60;91.90;;;;;;5014418;28;20570;-76
2023/06/20 20:22:27;;;;;;;11.60;4.97;;;24.60;93.10;;;;;;5013421;28;20213;-77
2023/06/20 20:24:56;;;;;;;19.03;7.17;;;24.50;97.70;;;;;;5013900;28;20209;-76
2023/06/20 20:27:40;;;;;;;29.60;8.97;;;24.20;99.90;;;;;;5014269;28;20217;-78
2023/06/20 20:30:10;;;;;;;23.13;9.50;;;23.30;99.90;;;;;;5014004;28;20221;-79
2023/06/20 20:32:42;;;;;;;19.83;8.87;;;22.70;99.90;;;;;;5013224;28;20725;-77
2023/06/20 20:35:11;;;;;;;17.83;8.40;;;22.30;99.90;;;;;;5013049;28;20216;-78
2023/06/20 20:37:40;;;;;;;25.67;8.87;;;21.80;99.90;;;;;;5033391;28;20245;-79
2023/06/20 20:40:09;;;;;;;18.27;8.67;;;21.50;99.90;;;;;;5033348;28;20236;-74
2023/06/20 20:42:38;;;;;;;15.90;7.93;;;21.30;99.90;;;;;;5033378;28;20231;-74
2023/06/20 20:45:09;;;;;;;13.53;7.67;;;21.20;99.90;;;;;;5016522;28;20205;-78
2023/06/20 20:47:37;;;;;;;19.17;8.93;;;21.10;99.90;;;;;;5013741;28;20276;-75
2023/06/20 20:50:06;;;;;;;17.47;8.07;;;21.10;99.90;;;;;;5013738;28;20206;-76
2023/06/20 20:52:34;;;;;;;17.23;8.27;;;21.10;99.90;;;;;;5013097;28;20213;-77
2023/06/20 20:55:02;;;;;;;15.80;8.20;;;20.90;99.90;;;;;;5013476;28;20206;-77
2023/06/20 20:57:30;;;;;;;16.07;9.60;;;20.90;99.90;;;;;;5013490;28;20225;-75
2023/06/20 20:59:59;;;;;;;17.53;9.80;;;20.90;99.90;;;;;;5013459;28;20565;-77
2023/06/20 21:02:29;;;;;;;15.17;9.70;;;21.00;99.90;;;;;;5013285;28;20210;-75
2023/06/20 21:04:57;;;;;;;21.00;10.50;;;20.90;99.90;;;;;;5013333;28;20264;-78
2023/06/20 21:07:25;;;;;;;17.50;9.33;;;21.00;99.90;;;;;;5013588;28;20222;-75
2023/06/20 21:09:53;;;;;;;13.77;9.20;;;20.90;99.90;;;;;;5026542;28;20243;-77
2023/06/20 21:12:22;;;;;;;19.80;9.47;;;20.70;99.90;;;;;;5033046;28;20208;-75
2023/06/20 21:14:50;;;;;;;12.40;8.80;;;20.70;99.90;;;;;;5035122;28;20204;-75
2023/06/20 21:17:18;;;;;;;16.83;9.57;;;20.60;99.90;;;;;;5032875;28;20236;-75
2023/06/20 21:19:48;;;;;;;16.90;9.47;;;20.60;99.90;;;;;;5035799;28;20224;-74
2023/06/20 21:22:16;;;;;;;17.40;9.93;;;20.50;99.90;;;;;;5034293;28;20209;-75
2023/06/20 21:24:44;;;;;;;17.30;9.47;;;20.50;99.90;;;;;;5035071;28;20217;-75
2023/06/20 21:27:12;;;;;;;16.20;10.40;;;20.50;99.90;;;;;;5034482;28;20212;-75
2023/06/20 21:29:40;;;;;;;17.13;10.80;;;20.40;99.90;;;;;;5033762;28;20209;-76
2023/06/20 21:32:09;;;;;;;16.23;10.13;;;20.40;99.90;;;;;;5032800;28;20235;-78
2023/06/20 21:34:37;;;;;;;18.83;9.80;;;20.40;99.90;;;;;;5032809;28;20272;-75
2023/06/20 21:37:07;;;;;;;17.77;10.73;;;20.40;99.90;;;;;;5032776;28;20303;-74
2023/06/20 21:39:35;;;;;;;18.83;10.33;;;20.40;99.90;;;;;;5032395;28;20201;-74
2023/06/20 21:42:04;;;;;;;17.87;10.87;;;20.40;99.90;;;;;;5035007;28;20216;-75
2023/06/20 21:44:32;;;;;;;17.60;11.17;;;20.40;99.90;;;;;;5052464;28;20571;-78
2023/06/20 21:47:01;;;;;;;17.93;10.23;;;20.30;99.90;;;;;;5043468;28;20626;-76
2023/06/20 21:49:29;;;;;;;18.20;10.97;;;20.30;99.90;;;;;;5032676;28;20570;-76
2023/06/20 21:51:57;;;;;;;21.17;11.80;;;20.20;99.90;;;;;;5032032;28;20209;-76
2023/06/20 21:54:27;;;;;;;19.07;11.87;;;20.20;99.90;;;;;;5032810;28;20220;-77
2023/06/20 21:56:55;;;;;;;19.20;11.03;;;20.20;99.90;;;;;;5032321;28;20275;-77
2023/06/20 21:59:24;;;;;;;16.97;11.17;;;20.20;99.90;;;;;;5031965;28;20205;-76
2023/06/20 22:01:52;;;;;;;15.20;11.43;;;20.20;99.90;;;;;;5030431;28;20190;-75
2023/06/20 22:04:20;;;;;;;16.20;11.50;;;20.20;99.90;;;;;;5030079;28;20251;-76
2023/06/20 22:06:51;;;;;;;20.90;12.00;;;20.20;99.90;;;;;;5030307;28;20215;-75
2023/06/20 22:09:19;;;;;;;18.73;11.67;;;20.10;99.90;;;;;;5031012;28;20298;-76
2023/06/20 22:11:49;;;;;;;20.30;11.63;;;20.10;99.90;;;;;;5030864;28;20208;-75
2023/06/20 22:14:17;;;;;;;19.10;11.80;;;20.10;99.90;;;;;;5031332;28;20212;-75
2023/06/20 22:16:45;;;;;;;18.77;11.80;;;20.00;99.90;;;;;;5031996;28;20271;-74
2023/06/20 22:19:15;;;;;;;21.53;12.43;;;20.00;99.90;;;;;;5031939;28;20541;-74
2023/06/20 22:21:44;;;;;;;16.33;11.33;;;20.00;99.90;;;;;;5031869;28;20223;-75
2023/06/20 22:24:12;;;;;;;16.97;11.67;;;19.90;99.90;;;;;;5031555;28;20808;-75
2023/06/20 22:26:41;;;;;;;18.33;11.90;;;20.00;99.90;;;;;;5031925;28;20631;-75
2023/06/20 22:29:11;;;;;;;15.77;12.03;;;20.00;99.90;;;;;;5032072;28;20230;-75
2023/06/20 22:31:39;;;;;;;14.70;11.63;;;20.00;99.90;;;;;;5031694;28;20654;-75
2023/06/20 22:34:07;;;;;;;16.37;13.10;;;19.90;99.90;;;;;;5033547;28;20205;-75
2023/06/20 22:36:35;;;;;;;14.87;11.33;;;19.90;99.90;;;;;;5036348;28;20209;-75
2023/06/20 22:39:04;;;;;;;19.30;12.77;;;19.90;99.90;;;;;;5035447;28;20241;-73
2023/06/20 22:41:32;;;;;;;18.87;12.37;;;19.90;99.90;;;;;;5035579;28;20295;-76
2023/06/20 22:44:00;;;;;;;17.30;11.80;;;19.90;99.90;;;;;;5035786;28;20255;-75
2023/06/20 22:46:30;;;;;;;15.57;12.10;;;19.80;99.90;;;;;;5036200;28;20621;-74
2023/06/20 22:48:59;;;;;;;21.00;12.87;;;19.80;99.90;;;;;;5054275;28;20291;-74
2023/06/20 22:51:30;;;;;;;17.53;11.87;;;19.70;99.90;;;;;;5055308;28;20768;-75
2023/06/20 22:53:59;;;;;;;16.87;11.93;;;19.70;99.90;;;;;;5055334;28;20724;-75
2023/06/20 22:56:28;;;;;;;20.03;13.27;;;19.70;99.90;;;;;;5054898;28;20802;-75
2023/06/20 22:58:56;;;;;;;18.83;14.03;;;19.70;99.90;;;;;;5055582;28;20232;-75
2023/06/20 23:01:25;;;;;;;14.87;11.70;;;19.60;99.90;;;;;;5055659;28;20258;-76
2023/06/20 23:03:54;;;;;;;12.83;11.13;;;19.60;99.90;;;;;;5055373;28;20270;-75
2023/06/20 23:06:22;;;;;;;15.83;11.87;;;19.60;99.90;;;;;;5041780;28;20648;-76
2023/06/20 23:08:50;;;;;;;15.23;11.30;;;19.50;99.90;;;;;;5035066;28;20233;-76
2023/06/20 23:11:19;;;;;;;17.00;12.00;;;19.50;99.90;;;;;;5034285;28;20659;-77
2023/06/20 23:13:47;;;;;;;15.97;12.13;;;19.40;99.90;;;;;;5034869;28;20209;-75
2023/06/20 23:16:15;;;;;;;13.23;11.53;;;19.40;99.90;;;;;;5035045;28;20678;-75
2023/06/20 23:18:44;;;;;;;16.63;11.40;;;19.40;99.90;;;;;;5035196;28;20311;-76
2023/06/20 23:21:14;;;;;;;15.70;11.23;;;19.30;99.90;;;;;;5035052;28;20244;-76
2023/06/20 23:23:46;;;;;;;16.80;11.00;;;19.30;99.90;;;;;;5035055;28;20232;-75
2023/06/20 23:26:14;;;;;;;14.63;10.70;;;19.20;99.90;;;;;;5034920;28;20197;-76
2023/06/20 23:28:42;;;;;;;12.20;10.83;;;19.20;99.90;;;;;;5033895;28;20638;-76
2023/06/20 23:31:10;;;;;;;16.27;11.57;;;19.20;99.90;;;;;;5034455;28;20213;-76
2023/06/20 23:33:39;;;;;;;16.80;11.53;;;19.20;99.90;;;;;;5034397;28;20292;-76
2023/06/20 23:36:08;;;;;;;12.67;10.20;;;19.20;99.90;;;;;;5041402;28;20472;-75
2023/06/20 23:38:37;;;;;;;16.40;11.73;;;19.20;99.90;;;;;;5054468;28;20461;-75
2023/06/20 23:41:06;;;;;;;14.13;11.10;;;19.20;99.90;;;;;;5054282;28;20212;-76
2023/06/20 23:43:34;;;;;;;15.33;11.20;;;19.10;99.90;;;;;;5053080;28;20212;-75
2023/06/20 23:46:02;;;;;;;13.93;11.10;;;19.10;99.90;;;;;;5033532;28;20267;-76
2023/06/20 23:48:30;;;;;;;17.10;10.43;;;19.10;99.90;;;;;;5034411;28;20553;-76
2023/06/20 23:50:58;;;;;;;18.43;12.80;;;19.10;99.90;;;;;;5034468;28;20209;-75
2023/06/20 23:53:26;;;;;;;16.40;11.80;;;19.00;99.90;;;;;;5033562;28;20209;-75
2023/06/20 23:55:56;;;;;;;19.80;12.03;;;19.00;99.90;;;;;;5034110;28;20372;-77
2023/06/20 23:58:24;;;;;;;18.70;11.37;;;19.00;99.90;;;;;;5033849;28;20229;-75
